Safmarine Nimba — WSNU — position and weather

sailwx.info

Track history (hours):
 
Tides and Currents Weather Stations Pressure Air Temp Water Temp Dewpoint Dewpoint Depression Visibility Wind Speed Wind Dir Waves Ship Positions

Safmarine Nimba

Owner: Maersk Line, Limited, Norfolk, VA. More information available from US FCC via Universal Licensing System and Coast Guard Vessel Documentation Center.

Last reported at 2018-Feb-10 19:44 UTC. Time now 2018-Feb-23 16:00 UTC.
Position N 33°05' E 033°32'.
Warning: this ship's position is 12 days out of date.

Length 195 m; draft 9.9 m.

Type: Ship (hazmat cat A). MMSI: 369248000.

Date/timePositionNaut miles runAvg speedWind from/ knotsBaromVisibWave heightAir tempDewpointWater temp
2018-Feb-10 19:44N 33°05' E 033°32'512.2
2018-Feb-10 19:17N 32°60' E 033°29'412.2
2018-Feb-10 19:00N 32°57' E 033°27'712.4
2018-Feb-10 18:28N 32°51' E 033°24'612.4
2018-Feb-10 18:01N 32°46' E 033°21'612.1
2018-Feb-10 17:30N 32°40' E 033°18'611.9
2018-Feb-10 17:00N 32°35' E 033°15'611.9
2018-Feb-10 16:30N 32°30' E 033°11'611.7
2018-Feb-10 16:00N 32°24' E 033°08'612.0
2018-Feb-10 15:28N 32°19' E 033°05'612.2
2018-Feb-10 15:00N 32°14' E 033°02'612.5
2018-Feb-10 14:30N 32°08' E 032°58'712.5
2018-Feb-10 13:56N 32°02' E 032°54'612.4
2018-Feb-10 13:26N 31°56' E 032°50'512.3
2018-Feb-10 13:00N 31°52' E 032°48'611.8
2018-Feb-10 12:30N 31°47' E 032°44'611.9
2018-Feb-10 12:00N 31°43' E 032°39'611.7
2018-Feb-10 11:30N 31°40' E 032°33'1011.5
2018-Feb-10 10:40N 31°35' E 032°23'1012.1
2018-Feb-10 09:52N 31°26' E 032°26'411.5
2018-Feb-10 09:30N 31°22' E 032°24'610.1
2018-Feb-10 08:58N 31°16' E 032°22'4 8.5
2018-Feb-10 08:30N 31°13' E 032°21'0 0.3
2018-Feb-10 08:00N 31°13' E 032°21'0 0.1
2018-Feb-10 07:28N 31°12' E 032°21'0 0.0
2018-Feb-10 06:58N 31°12' E 032°21'0 0.0
2018-Feb-10 06:28N 31°12' E 032°21'0 0.0
2018-Feb-10 05:55N 31°12' E 032°21'0 0.0
2018-Feb-10 05:28N 31°12' E 032°21'0 0.0
2018-Feb-10 04:58N 31°12' E 032°21'0 0.0
2018-Feb-10 04:28N 31°12' E 032°21'0 0.0
2018-Feb-10 03:58N 31°12' E 032°21'0 0.0
2018-Feb-10 03:28N 31°12' E 032°21'0 0.0
2018-Feb-10 02:58N 31°12' E 032°21'0 0.0
2018-Feb-10 00:04N 31°12' E 032°21'31 1.0
2018-Feb-08 18:30N 31°42' E 032°33'  
2018-Feb-05 05:19N 34°21' E 034°20'712.2
2018-Feb-05 04:44N 34°15' E 034°16'312.3
2018-Feb-05 04:30N 34°13' E 034°14'712.2
2018-Feb-05 03:55N 34°06' E 034°10'512.3
2018-Feb-05 03:30N 34°02' E 034°08'1512.4
2018-Feb-05 02:19N 33°49' E 033°59'412.5
2018-Feb-05 01:59N 33°45' E 033°57'612.3
2018-Feb-05 01:30N 33°40' E 033°54'612.4
2018-Feb-05 01:00N 33°34' E 033°51'713.0
2018-Feb-05 00:27N 33°27' E 033°48'512.2
2018-Feb-05 00:00N 33°22' E 033°45'1012.7
2018-Feb-04 23:12N 33°13' E 033°41'312.5
2018-Feb-04 22:58N 33°10' E 033°39'612.4
2018-Feb-04 22:30N 33°05' E 033°36'712.7
2018-Feb-04 21:55N 32°59' E 033°30'512.7
2018-Feb-04 21:30N 32°55' E 033°27'612.6
2018-Feb-04 21:00N 32°49' E 033°23'1312.7
2018-Feb-04 20:00N 32°38' E 033°16'612.7
2018-Feb-04 19:30N 32°33' E 033°13'612.3
2018-Feb-04 19:00N 32°27' E 033°10'612.8
2018-Feb-04 18:30N 32°21' E 033°06'713.0
2018-Feb-04 18:00N 32°16' E 033°02'713.1
2018-Feb-04 17:29N 32°10' E 032°59'4012.1
2018-Feb-04 14:14N 31°39' E 032°30'411.9
2018-Feb-04 13:53N 31°37' E 032°26'1311.4
2018-Feb-04 12:46N 31°24' E 032°25'12 3.2
2018-Feb-04 08:55N 31°12' E 032°21'0 0.0
2018-Feb-04 07:28N 31°12' E 032°21'0 0.0
2018-Feb-04 06:58N 31°12' E 032°21'0 0.0
2018-Feb-04 06:25N 31°12' E 032°21'0 0.0
2018-Feb-04 06:01N 31°12' E 032°21'0 0.0
2018-Feb-04 04:19N 31°12' E 032°21'0 0.0
2018-Feb-04 03:58N 31°12' E 032°21'0 0.0
2018-Feb-04 03:28N 31°12' E 032°21'0 0.0
2018-Feb-04 02:58N 31°12' E 032°21'0 0.0
2018-Feb-04 02:28N 31°12' E 032°21'0 0.0
2018-Feb-04 01:55N 31°12' E 032°21'0 0.0
2018-Feb-04 01:25N 31°12' E 032°21'0 0.0
2018-Feb-04 00:58N 31°12' E 032°21'0 0.0
2018-Feb-04 00:28N 31°12' E 032°21'0 0.0
2018-Feb-03 17:28N 31°12' E 032°21'0 0.0
2018-Feb-03 11:07N 31°12' E 032°21'0 0.0
2018-Feb-03 10:58N 31°12' E 032°21'0 0.0
2018-Feb-03 10:28N 31°12' E 032°21'0 0.0
2018-Feb-03 09:52N 31°12' E 032°21'0 0.0
2018-Feb-03 09:28N 31°12' E 032°21'0 0.0
2018-Feb-03 05:37N 31°12' E 032°21'0 0.1
2018-Feb-03 05:28N 31°12' E 032°21'0 0.0
2018-Feb-03 04:31N 31°12' E 032°21'0 0.0
2018-Feb-03 03:58N 31°12' E 032°21'0 0.0
2018-Feb-03 03:25N 31°12' E 032°21'0 0.0
2018-Feb-03 01:55N 31°12' E 032°21'  
Track history (hours):
 
Tides and Currents Weather Stations Pressure Air Temp Water Temp Dewpoint Dewpoint Depression Visibility Wind Speed Wind Dir Waves Ship Positions

Safmarine Nimba

Owner: Maersk Line, Limited, Norfolk, VA. More information available from US FCC via Universal Licensing System and Coast Guard Vessel Documentation Center.

Last reported at 2018-Feb-10 19:44 UTC. Time now 2018-Feb-23 16:00 UTC.
Position N 33°05' E 033°32'.
Warning: this ship's position is 12 days out of date.

Length 195 m; draft 9.9 m.

Type: Ship (hazmat cat A). MMSI: 369248000.

Date/timePositionNaut miles runAvg speedWind from/ knotsBaromVisibWave heightAir tempDewpointWater temp
2018-Feb-10 19:44N 33°05' E 033°32'512.2
2018-Feb-10 19:17N 32°60' E 033°29'412.2
2018-Feb-10 19:00N 32°57' E 033°27'712.4
2018-Feb-10 18:28N 32°51' E 033°24'612.4
2018-Feb-10 18:01N 32°46' E 033°21'612.1
2018-Feb-10 17:30N 32°40' E 033°18'611.9
2018-Feb-10 17:00N 32°35' E 033°15'611.9
2018-Feb-10 16:30N 32°30' E 033°11'611.7
2018-Feb-10 16:00N 32°24' E 033°08'612.0
2018-Feb-10 15:28N 32°19' E 033°05'612.2
2018-Feb-10 15:00N 32°14' E 033°02'612.5
2018-Feb-10 14:30N 32°08' E 032°58'712.5
2018-Feb-10 13:56N 32°02' E 032°54'612.4
2018-Feb-10 13:26N 31°56' E 032°50'512.3
2018-Feb-10 13:00N 31°52' E 032°48'611.8
2018-Feb-10 12:30N 31°47' E 032°44'611.9
2018-Feb-10 12:00N 31°43' E 032°39'611.7
2018-Feb-10 11:30N 31°40' E 032°33'1011.5
2018-Feb-10 10:40N 31°35' E 032°23'1012.1
2018-Feb-10 09:52N 31°26' E 032°26'411.5
2018-Feb-10 09:30N 31°22' E 032°24'610.1
2018-Feb-10 08:58N 31°16' E 032°22'4 8.5
2018-Feb-10 08:30N 31°13' E 032°21'0 0.3
2018-Feb-10 08:00N 31°13' E 032°21'0 0.1
2018-Feb-10 07:28N 31°12' E 032°21'0 0.0
2018-Feb-10 06:58N 31°12' E 032°21'0 0.0
2018-Feb-10 06:28N 31°12' E 032°21'0 0.0
2018-Feb-10 05:55N 31°12' E 032°21'0 0.0
2018-Feb-10 05:28N 31°12' E 032°21'0 0.0
2018-Feb-10 04:58N 31°12' E 032°21'0 0.0
2018-Feb-10 04:28N 31°12' E 032°21'0 0.0
2018-Feb-10 03:58N 31°12' E 032°21'0 0.0
2018-Feb-10 03:28N 31°12' E 032°21'0 0.0
2018-Feb-10 02:58N 31°12' E 032°21'0 0.0
2018-Feb-10 00:04N 31°12' E 032°21'31 1.0
2018-Feb-08 18:30N 31°42' E 032°33'  
2018-Feb-05 05:19N 34°21' E 034°20'712.2
2018-Feb-05 04:44N 34°15' E 034°16'312.3
2018-Feb-05 04:30N 34°13' E 034°14'712.2
2018-Feb-05 03:55N 34°06' E 034°10'512.3
2018-Feb-05 03:30N 34°02' E 034°08'1512.4
2018-Feb-05 02:19N 33°49' E 033°59'412.5
2018-Feb-05 01:59N 33°45' E 033°57'612.3
2018-Feb-05 01:30N 33°40' E 033°54'612.4
2018-Feb-05 01:00N 33°34' E 033°51'713.0
2018-Feb-05 00:27N 33°27' E 033°48'512.2
2018-Feb-05 00:00N 33°22' E 033°45'1012.7
2018-Feb-04 23:12N 33°13' E 033°41'312.5
2018-Feb-04 22:58N 33°10' E 033°39'612.4
2018-Feb-04 22:30N 33°05' E 033°36'712.7
2018-Feb-04 21:55N 32°59' E 033°30'512.7
2018-Feb-04 21:30N 32°55' E 033°27'612.6
2018-Feb-04 21:00N 32°49' E 033°23'1312.7
2018-Feb-04 20:00N 32°38' E 033°16'612.7
2018-Feb-04 19:30N 32°33' E 033°13'612.3
2018-Feb-04 19:00N 32°27' E 033°10'612.8
2018-Feb-04 18:30N 32°21' E 033°06'713.0
2018-Feb-04 18:00N 32°16' E 033°02'713.1
2018-Feb-04 17:29N 32°10' E 032°59'4012.1
2018-Feb-04 14:14N 31°39' E 032°30'411.9
2018-Feb-04 13:53N 31°37' E 032°26'1311.4
2018-Feb-04 12:46N 31°24' E 032°25'12 3.2
2018-Feb-04 08:55N 31°12' E 032°21'0 0.0
2018-Feb-04 07:28N 31°12' E 032°21'0 0.0
2018-Feb-04 06:58N 31°12' E 032°21'0 0.0
2018-Feb-04 06:25N 31°12' E 032°21'0 0.0
2018-Feb-04 06:01N 31°12' E 032°21'0 0.0
2018-Feb-04 04:19N 31°12' E 032°21'0 0.0
2018-Feb-04 03:58N 31°12' E 032°21'0 0.0
2018-Feb-04 03:28N 31°12' E 032°21'0 0.0
2018-Feb-04 02:58N 31°12' E 032°21'0 0.0
2018-Feb-04 02:28N 31°12' E 032°21'0 0.0
2018-Feb-04 01:55N 31°12' E 032°21'0 0.0
2018-Feb-04 01:25N 31°12' E 032°21'0 0.0
2018-Feb-04 00:58N 31°12' E 032°21'0 0.0
2018-Feb-04 00:28N 31°12' E 032°21'0 0.0
2018-Feb-03 17:28N 31°12' E 032°21'0 0.0
2018-Feb-03 11:07N 31°12' E 032°21'0 0.0
2018-Feb-03 10:58N 31°12' E 032°21'0 0.0
2018-Feb-03 10:28N 31°12' E 032°21'0 0.0
2018-Feb-03 09:52N 31°12' E 032°21'0 0.0
2018-Feb-03 09:28N 31°12' E 032°21'0 0.0
2018-Feb-03 05:37N 31°12' E 032°21'0 0.1
2018-Feb-03 05:28N 31°12' E 032°21'0 0.0
2018-Feb-03 04:31N 31°12' E 032°21'0 0.0
2018-Feb-03 03:58N 31°12' E 032°21'0 0.0
2018-Feb-03 03:25N 31°12' E 032°21'0 0.0
2018-Feb-03 01:55N 31°12' E 032°21'  

Dump ship's entire track history